createdAt,value
2018-11-10T00:02:22.066Z,54.39
2018-11-10T00:04:50.661Z,54.23
2018-11-10T00:07:19.272Z,54.57
2018-11-10T00:09:47.934Z,54.34
2018-11-10T00:12:16.500Z,53.94
2018-11-10T00:14:45.099Z,54.15
2018-11-10T00:17:13.687Z,53.92
2018-11-10T00:19:42.242Z,54.14
2018-11-10T00:22:10.820Z,54.16
2018-11-10T00:24:39.379Z,54.25
2018-11-10T00:27:07.925Z,54.50
2018-11-10T00:29:36.512Z,54.14
2018-11-10T00:32:05.496Z,54.64
2018-11-10T00:34:34.075Z,54.75
2018-11-10T00:37:02.591Z,54.48
2018-11-10T00:39:31.253Z,54.43
2018-11-10T00:41:59.751Z,53.94
2018-11-10T00:44:28.317Z,54.41
2018-11-10T00:46:56.835Z,54.18
2018-11-10T00:49:25.455Z,54.55
2018-11-10T00:51:53.997Z,53.99
2018-11-10T00:54:22.533Z,54.12
2018-11-10T00:56:51.015Z,53.85
2018-11-10T00:59:20.020Z,53.54
2018-11-10T01:01:48.589Z,53.80
2018-11-10T01:04:17.134Z,53.67
2018-11-10T01:06:45.667Z,53.20
2018-11-10T01:09:14.188Z,53.35
2018-11-10T01:11:42.659Z,53.51
2018-11-10T01:14:11.189Z,53.47
2018-11-10T01:16:39.774Z,53.12
2018-11-10T01:19:08.362Z,53.18
2018-11-10T01:21:36.848Z,53.50
2018-11-10T01:24:05.382Z,52.68
2018-11-10T01:26:33.912Z,52.85
2018-11-10T01:29:02.450Z,52.62
2018-11-10T01:31:30.998Z,53.32
2018-11-10T01:33:59.560Z,52.98
2018-11-10T01:36:28.112Z,52.95
2018-11-10T01:38:56.637Z,52.22
2018-11-10T01:41:25.154Z,52.32
2018-11-10T01:43:53.695Z,52.37
2018-11-10T01:46:22.257Z,51.48
2018-11-10T01:48:50.765Z,52.01
2018-11-10T01:51:19.296Z,51.26
2018-11-10T01:53:47.877Z,51.86
2018-11-10T01:56:16.405Z,51.90
2018-11-10T01:58:44.920Z,51.53
2018-11-10T02:01:13.452Z,51.49
2018-11-10T02:03:42.803Z,50.50
2018-11-10T02:06:11.303Z,50.47
2018-11-10T02:08:39.856Z,50.71
2018-11-10T02:11:08.468Z,50.42
2018-11-10T02:13:36.992Z,50.13
2018-11-10T02:16:05.700Z,49.97
2018-11-10T02:18:34.200Z,49.89
2018-11-10T02:21:02.757Z,49.68
2018-11-10T02:23:31.282Z,49.24
2018-11-10T02:25:59.860Z,49.72
2018-11-10T02:28:28.368Z,48.93
2018-11-10T02:30:56.967Z,49.45
2018-11-10T02:33:25.636Z,49.35
2018-11-10T02:35:54.155Z,49.41
2018-11-10T02:38:22.679Z,48.71
2018-11-10T02:40:51.196Z,49.23
2018-11-10T02:43:19.724Z,48.50
2018-11-10T02:45:48.264Z,48.38
2018-11-10T02:48:16.800Z,48.98
2018-11-10T02:50:45.328Z,48.58
2018-11-10T02:53:13.833Z,48.25
2018-11-10T02:55:42.338Z,47.98
2018-11-10T02:58:10.851Z,47.92
2018-11-10T03:00:39.370Z,48.23
2018-11-10T03:03:07.886Z,48.07
2018-11-10T03:05:36.425Z,48.30
2018-11-10T03:08:05.043Z,48.10
2018-11-10T03:10:33.558Z,47.75
2018-11-10T03:13:02.092Z,47.87
2018-11-10T03:15:30.708Z,47.88
2018-11-10T03:17:59.296Z,48.50
2018-11-10T03:20:27.851Z,47.60
2018-11-10T03:22:56.283Z,48.31
2018-11-10T03:25:24.816Z,47.93
2018-11-10T03:27:53.376Z,47.63
2018-11-10T03:30:21.926Z,48.13
2018-11-10T03:32:50.465Z,48.41
2018-11-10T03:35:19.041Z,48.04
2018-11-10T03:37:47.627Z,47.96
2018-11-10T03:40:16.207Z,47.95
2018-11-10T03:42:44.691Z,47.28
2018-11-10T03:45:13.425Z,47.49
2018-11-10T03:47:42.006Z,47.82
2018-11-10T03:50:11.562Z,48.05
2018-11-10T03:52:40.084Z,48.09
2018-11-10T03:55:09.111Z,47.24
2018-11-10T03:57:37.607Z,48.22
2018-11-10T04:00:07.553Z,47.32
2018-11-10T04:02:36.029Z,47.98
2018-11-10T04:05:04.537Z,47.67
2018-11-10T04:07:33.017Z,47.98
2018-11-10T04:10:01.596Z,47.02
2018-11-10T04:12:30.148Z,47.34
2018-11-10T04:14:58.637Z,47.16
2018-11-10T04:17:27.196Z,47.37
2018-11-10T04:19:56.680Z,47.27
2018-11-10T04:22:31.396Z,47.36
2018-11-10T04:24:59.948Z,47.59
2018-11-10T04:27:28.796Z,47.23
2018-11-10T04:29:57.283Z,47.52
2018-11-10T04:32:25.839Z,46.60
2018-11-10T04:34:54.404Z,47.25
2018-11-10T04:37:23.060Z,47.49
2018-11-10T04:39:51.607Z,47.08
2018-11-10T04:42:20.117Z,47.11
2018-11-10T04:44:48.740Z,46.42
2018-11-10T04:47:17.310Z,47.02
2018-11-10T04:49:45.961Z,46.66
2018-11-10T04:52:14.380Z,46.72
2018-11-10T04:54:42.840Z,46.93
2018-11-10T04:57:11.378Z,47.17
2018-11-10T04:59:39.859Z,46.97
2018-11-10T05:02:08.428Z,46.53
2018-11-10T05:04:36.930Z,46.43
2018-11-10T05:07:05.542Z,46.91
2018-11-10T05:09:34.161Z,46.83
2018-11-10T05:12:02.755Z,45.88
2018-11-10T05:14:31.264Z,46.48
2018-11-10T05:16:59.872Z,45.95
2018-11-10T05:19:28.391Z,46.67
2018-11-10T05:21:56.879Z,46.40
2018-11-10T05:24:25.399Z,46.15
2018-11-10T05:26:53.910Z,46.16
2018-11-10T05:29:22.381Z,45.86
2018-11-10T05:31:50.876Z,46.80
2018-11-10T05:34:19.402Z,46.52
2018-11-10T05:36:47.940Z,46.54
2018-11-10T05:39:16.406Z,46.25
2018-11-10T05:41:44.990Z,46.42
2018-11-10T05:44:13.506Z,46.88
2018-11-10T05:46:42.037Z,46.91
2018-11-10T05:49:10.609Z,46.95
2018-11-10T05:51:39.894Z,46.92
2018-11-10T05:54:09.293Z,47.62
2018-11-10T05:56:38.493Z,47.73
2018-11-10T05:59:07.974Z,47.86
2018-11-10T06:01:37.305Z,48.69
2018-11-10T06:04:06.810Z,49.28
2018-11-10T06:06:36.007Z,50.36
2018-11-10T06:09:07.584Z,50.78
2018-11-10T06:11:36.761Z,52.25
2018-11-10T06:14:06.168Z,52.96
2018-11-10T06:16:35.528Z,53.41
2018-11-10T06:19:04.581Z,53.82
2018-11-10T06:21:33.925Z,54.79
2018-11-10T06:24:03.223Z,55.06
2018-11-10T06:26:32.683Z,55.79
2018-11-10T06:29:01.852Z,55.76
2018-11-10T06:31:31.440Z,57.02
2018-11-10T06:34:01.143Z,57.44
2018-11-10T06:36:30.770Z,57.63
2018-11-10T06:39:01.042Z,57.83
2018-11-10T06:41:30.516Z,58.00
2018-11-10T06:44:01.797Z,58.60
2018-11-10T06:46:31.978Z,59.43
2018-11-10T06:49:02.205Z,59.05
2018-11-10T06:51:32.429Z,59.88
2018-11-10T06:54:18.479Z,59.56
2018-11-10T06:56:48.427Z,59.66
2018-11-10T06:59:17.111Z,59.78
2018-11-10T07:01:45.824Z,60.15
2018-11-10T07:04:14.444Z,59.96
2018-11-10T07:06:43.012Z,59.74
2018-11-10T07:09:12.164Z,60.40
2018-11-10T07:11:41.464Z,60.24
2018-11-10T07:14:10.071Z,60.18
2018-11-10T07:16:38.603Z,61.29
2018-11-10T07:19:07.107Z,60.86
2018-11-10T07:21:36.390Z,60.79
2018-11-10T07:24:05.345Z,61.30
2018-11-10T07:26:33.995Z,61.17
2018-11-10T07:29:02.697Z,61.31
2018-11-10T07:31:31.475Z,61.79
2018-11-10T07:34:00.075Z,62.07
2018-11-10T07:36:28.726Z,62.17
2018-11-10T07:38:57.323Z,62.19
2018-11-10T07:41:25.872Z,62.51
2018-11-10T07:43:54.413Z,62.20
2018-11-10T07:46:23.445Z,62.46
2018-11-10T07:48:52.101Z,62.32
2018-11-10T07:51:20.792Z,62.34
2018-11-10T07:53:49.344Z,62.76
2018-11-10T07:56:17.872Z,62.02
2018-11-10T07:58:46.714Z,62.71
2018-11-10T08:01:15.363Z,63.04
2018-11-10T08:03:44.094Z,62.58
2018-11-10T08:06:12.707Z,62.76
2018-11-10T08:08:41.354Z,62.80
2018-11-10T08:11:10.069Z,62.83
2018-11-10T08:13:38.685Z,62.45
2018-11-10T08:16:07.639Z,62.71
2018-11-10T08:18:36.931Z,62.69
2018-11-10T08:21:05.761Z,62.19
2018-11-10T08:23:34.569Z,61.95
2018-11-10T08:26:03.225Z,61.62
2018-11-10T08:28:32.379Z,61.82
2018-11-10T08:31:02.220Z,61.98
2018-11-10T08:33:30.815Z,61.91
2018-11-10T08:35:59.657Z,61.13
2018-11-10T08:38:31.546Z,61.69
2018-11-10T08:41:00.365Z,61.38
2018-11-10T08:43:29.182Z,61.45
2018-11-10T08:45:58.682Z,60.85
2018-11-10T08:48:28.689Z,60.57
2018-11-10T08:50:57.728Z,60.44
2018-11-10T08:53:36.329Z,60.36
2018-11-10T08:56:10.793Z,60.64
2018-11-10T08:58:44.453Z,60.90
2018-11-10T09:01:15.572Z,60.29
2018-11-10T09:03:47.024Z,60.33
2018-11-10T09:06:15.614Z,60.52
2018-11-10T09:08:45.036Z,60.73
2018-11-10T09:11:13.793Z,60.65
2018-11-10T09:13:42.731Z,60.26
2018-11-10T09:16:12.073Z,60.62
2018-11-10T09:18:43.154Z,60.06
2018-11-10T09:21:11.822Z,59.90
2018-11-10T09:23:52.681Z,59.59
2018-11-10T09:26:26.032Z,60.08
2018-11-10T09:28:56.383Z,60.25
2018-11-10T09:31:27.585Z,59.77
2018-11-10T09:34:02.262Z,59.34
2018-11-10T09:36:36.924Z,59.88
2018-11-10T09:39:12.827Z,59.45
2018-11-10T09:41:43.418Z,59.71
2018-11-10T09:44:17.058Z,59.85
2018-11-10T09:46:50.091Z,60.09
2018-11-10T09:49:24.110Z,60.24
2018-11-10T09:51:56.947Z,60.34
2018-11-10T09:54:29.288Z,61.00
2018-11-10T09:57:01.783Z,60.05
2018-11-10T09:59:35.299Z,60.60
2018-11-10T10:02:10.162Z,60.91
2018-11-10T10:04:45.526Z,61.36
2018-11-10T10:07:20.306Z,61.47
2018-11-10T10:09:53.868Z,61.83
2018-11-10T10:12:28.314Z,61.59
2018-11-10T10:17:48.376Z,61.21
2018-11-10T10:20:24.200Z,61.36
2018-11-10T10:22:57.447Z,61.69
2018-11-10T10:25:26.149Z,61.44
2018-11-10T10:27:54.974Z,61.59
2018-11-10T10:30:25.175Z,61.56
2018-11-10T10:32:53.886Z,62.31
2018-11-10T10:35:23.096Z,62.26
2018-11-10T10:37:52.621Z,62.41
2018-11-10T10:40:21.637Z,62.40
2018-11-10T10:42:50.600Z,62.01
2018-11-10T10:45:22.739Z,60.75
2018-11-10T10:47:51.429Z,61.34
2018-11-10T10:50:21.525Z,61.15
2018-11-10T10:52:50.342Z,61.63
2018-11-10T10:55:19.671Z,61.25
2018-11-10T10:57:49.197Z,61.42
2018-11-10T11:00:23.064Z,61.66
2018-11-10T11:02:57.104Z,61.18
2018-11-10T11:05:30.872Z,61.93
2018-11-10T11:07:59.492Z,61.69
2018-11-10T11:10:28.134Z,62.65
2018-11-10T11:12:56.772Z,62.43
2018-11-10T11:15:25.653Z,62.09
2018-11-10T11:17:54.340Z,63.35
2018-11-10T11:20:23.213Z,62.87
2018-11-10T11:22:51.736Z,62.71
2018-11-10T11:25:20.401Z,62.44
2018-11-10T11:27:49.788Z,63.17
2018-11-10T11:30:18.641Z,62.69
2018-11-10T11:32:47.284Z,62.02
2018-11-10T11:35:16.022Z,62.56
2018-11-10T11:37:44.694Z,62.64
2018-11-10T11:40:14.480Z,62.66
2018-11-10T11:42:43.693Z,63.26
2018-11-10T11:45:13.168Z,63.38
2018-11-10T11:47:42.525Z,63.26
2018-11-10T11:50:13.329Z,63.24
2018-11-10T11:52:42.450Z,63.61
2018-11-10T11:55:12.345Z,63.34
2018-11-10T11:57:41.307Z,63.13
2018-11-10T12:00:12.300Z,63.59
2018-11-10T12:02:41.696Z,63.33
2018-11-10T12:05:11.844Z,63.56
2018-11-10T12:07:40.601Z,63.83
2018-11-10T12:10:11.280Z,63.20
2018-11-10T12:12:40.025Z,64.21
2018-11-10T12:15:10.299Z,64.06
2018-11-10T12:17:39.216Z,64.28
2018-11-10T12:20:10.533Z,64.34
2018-11-10T12:22:39.227Z,63.93
2018-11-10T12:25:10.203Z,64.61
2018-11-10T12:27:38.821Z,64.68
2018-11-10T12:30:09.744Z,64.66
2018-11-10T12:32:38.699Z,65.39
2018-11-10T12:35:08.626Z,64.84
2018-11-10T12:37:37.280Z,64.87
2018-11-10T12:40:09.282Z,64.45
2018-11-10T12:42:38.762Z,64.25
2018-11-10T12:45:08.977Z,64.54
2018-11-10T12:47:38.246Z,64.93
2018-11-10T12:50:08.000Z,64.63
2018-11-10T12:52:36.637Z,63.94
2018-11-10T12:55:06.606Z,64.10
2018-11-10T12:57:35.383Z,64.65
2018-11-10T13:00:04.326Z,64.31
2018-11-10T13:02:32.938Z,63.90
2018-11-10T13:05:01.512Z,64.11
2018-11-10T13:07:30.127Z,64.79
2018-11-10T13:09:58.748Z,64.49
2018-11-10T13:12:27.401Z,64.37
2018-11-10T13:14:56.022Z,64.53
2018-11-10T13:17:25.205Z,64.25
2018-11-10T13:19:54.040Z,64.75
2018-11-10T13:22:22.914Z,64.90
2018-11-10T13:24:51.503Z,64.58
2018-11-10T13:27:20.053Z,64.46
2018-11-10T13:29:48.534Z,63.74
2018-11-10T13:32:17.084Z,64.47
2018-11-10T13:34:45.562Z,63.68
2018-11-10T13:37:14.514Z,64.23
2018-11-10T13:39:43.085Z,64.20
2018-11-10T13:42:11.917Z,64.08
2018-11-10T13:44:40.538Z,64.39
2018-11-10T13:47:09.284Z,63.54
2018-11-10T13:49:37.866Z,64.05
2018-11-10T13:52:06.873Z,63.42
2018-11-10T13:54:35.437Z,64.12
2018-11-10T13:57:04.083Z,63.22
2018-11-10T13:59:32.860Z,63.63
2018-11-10T14:02:01.350Z,63.74
2018-11-10T14:04:29.911Z,64.35
2018-11-10T14:06:58.591Z,64.10
2018-11-10T14:09:27.165Z,63.28
2018-11-10T14:11:55.773Z,63.59
2018-11-10T14:14:28.572Z,64.01
2018-11-10T14:16:57.238Z,63.61
2018-11-10T14:19:26.024Z,63.71
2018-11-10T14:21:54.643Z,64.26
2018-11-10T14:24:23.464Z,63.55
2018-11-10T14:26:52.048Z,63.53
2018-11-10T14:29:20.780Z,64.55
2018-11-10T14:31:49.641Z,64.39
2018-11-10T14:34:18.713Z,64.21
2018-11-10T14:36:47.543Z,64.71
2018-11-10T14:39:16.206Z,64.62
2018-11-10T14:41:45.019Z,64.47
2018-11-10T14:44:13.582Z,64.55
2018-11-10T14:46:42.123Z,64.12
2018-11-10T14:49:10.656Z,64.22
2018-11-10T14:51:39.310Z,64.60
2018-11-10T14:54:07.862Z,64.18
2018-11-10T14:56:36.576Z,64.57
2018-11-10T14:59:05.305Z,64.63
2018-11-10T15:01:33.914Z,64.50
2018-11-10T15:04:02.750Z,64.23
2018-11-10T15:06:31.469Z,65.21
2018-11-10T15:09:00.212Z,64.69
2018-11-10T15:11:29.027Z,64.86
2018-11-10T15:13:57.656Z,64.19
2018-11-10T15:16:26.347Z,64.81
2018-11-10T15:18:54.849Z,64.34
2018-11-10T15:21:23.451Z,64.66
2018-11-10T15:23:52.334Z,64.35
2018-11-10T15:26:20.972Z,64.39
2018-11-10T15:28:49.424Z,64.40
2018-11-10T15:31:18.006Z,64.15
2018-11-10T15:33:46.559Z,64.80
2018-11-10T15:36:15.244Z,64.44
2018-11-10T15:38:43.850Z,64.31
2018-11-10T15:41:12.438Z,64.16
2018-11-10T15:43:41.032Z,64.32
2018-11-10T15:46:09.607Z,63.86
2018-11-10T15:48:38.237Z,64.07
2018-11-10T15:51:06.774Z,63.60
2018-11-10T15:53:35.653Z,63.76
2018-11-10T15:56:04.387Z,63.64
2018-11-10T15:58:32.961Z,63.62
2018-11-10T16:01:01.548Z,63.56
2018-11-10T16:03:30.187Z,63.98
2018-11-10T16:05:58.748Z,63.06
2018-11-10T16:08:27.349Z,63.38
2018-11-10T16:10:55.931Z,63.22
2018-11-10T16:13:24.559Z,63.02
2018-11-10T16:15:53.266Z,63.02
2018-11-10T16:18:21.906Z,62.92
2018-11-10T16:20:50.579Z,63.77
2018-11-10T16:23:19.103Z,63.19
2018-11-10T16:25:47.740Z,63.24
2018-11-10T16:28:18.120Z,63.26
2018-11-10T16:30:46.784Z,63.66
2018-11-10T16:33:15.386Z,63.05
2018-11-10T16:35:44.054Z,63.68
2018-11-10T16:38:12.593Z,63.26
2018-11-10T16:40:41.156Z,63.16
2018-11-10T16:43:09.769Z,63.18
2018-11-10T16:45:38.372Z,63.09
2018-11-10T16:48:06.996Z,63.42
2018-11-10T16:50:35.582Z,62.80
2018-11-10T16:53:04.874Z,62.50
2018-11-10T16:55:33.460Z,63.05
2018-11-10T16:58:02.092Z,62.62
2018-11-10T17:00:31.365Z,63.05
2018-11-10T17:03:00.077Z,62.84
2018-11-10T17:05:28.759Z,62.35
2018-11-10T17:07:57.429Z,62.43
2018-11-10T17:10:26.256Z,62.55
2018-11-10T17:12:54.882Z,62.93
2018-11-10T17:15:23.713Z,62.42
2018-11-10T17:17:52.403Z,63.05
2018-11-10T17:20:21.010Z,62.95
2018-11-10T17:22:49.706Z,62.93
2018-11-10T17:25:18.320Z,62.28
2018-11-10T17:27:47.150Z,62.39
2018-11-10T17:30:17.276Z,62.80
2018-11-10T17:32:46.909Z,62.41
2018-11-10T17:35:15.896Z,61.76
2018-11-10T17:37:44.949Z,62.52
2018-11-10T17:40:14.248Z,62.60
2018-11-10T17:42:42.872Z,62.39
2018-11-10T17:45:13.831Z,61.97
2018-11-10T17:47:42.985Z,61.86
2018-11-10T17:50:13.098Z,61.78
2018-11-10T17:52:42.243Z,61.61
2018-11-10T17:55:13.051Z,62.24
2018-11-10T17:57:42.251Z,61.36
2018-11-10T18:00:10.797Z,61.55
2018-11-10T18:02:39.441Z,61.20
2018-11-10T18:05:10.768Z,61.93
2018-11-10T18:07:39.411Z,61.13
2018-11-10T18:10:09.680Z,61.20
2018-11-10T18:12:38.335Z,61.29
2018-11-10T18:15:08.591Z,61.80
2018-11-10T18:17:37.306Z,61.80
2018-11-10T18:20:06.948Z,60.69
2018-11-10T18:22:35.545Z,61.34
2018-11-10T18:25:04.268Z,61.37
2018-11-10T18:27:32.757Z,61.21
2018-11-10T18:30:01.310Z,60.86
2018-11-10T18:32:30.299Z,61.00
2018-11-10T18:34:58.901Z,60.60
2018-11-10T18:37:27.445Z,61.09
2018-11-10T18:39:56.146Z,61.21
2018-11-10T18:42:24.614Z,60.93
2018-11-10T18:44:53.275Z,61.12
2018-11-10T18:47:21.861Z,60.84
2018-11-10T18:49:50.393Z,61.54
2018-11-10T18:52:18.928Z,61.41
2018-11-10T18:54:47.654Z,61.56
2018-11-10T18:57:16.430Z,62.09
2018-11-10T18:59:44.954Z,62.22
2018-11-10T19:02:13.713Z,62.92
2018-11-10T19:04:42.407Z,63.35
2018-11-10T19:07:10.967Z,63.64
2018-11-10T19:09:39.464Z,63.41
2018-11-10T19:12:08.251Z,63.77
2018-11-10T19:14:36.934Z,64.63
2018-11-10T19:17:05.530Z,65.06
2018-11-10T19:19:34.256Z,64.92
2018-11-10T19:22:02.783Z,64.62
2018-11-10T19:24:31.681Z,65.22
2018-11-10T19:27:00.490Z,64.98
2018-11-10T19:29:28.953Z,65.74
2018-11-10T19:31:57.534Z,65.55
2018-11-10T19:34:26.134Z,66.01
2018-11-10T19:36:54.701Z,65.92
2018-11-10T19:39:23.254Z,65.55
2018-11-10T19:41:51.777Z,65.74
2018-11-10T19:44:20.521Z,65.98
2018-11-10T19:46:49.003Z,65.43
2018-11-10T19:49:17.611Z,65.98
2018-11-10T19:51:46.262Z,66.21
2018-11-10T19:54:14.788Z,65.95
2018-11-10T19:56:43.360Z,65.72
2018-11-10T19:59:11.934Z,65.94
2018-11-10T20:01:40.528Z,66.15
2018-11-10T20:04:09.085Z,65.98
2018-11-10T20:06:37.790Z,66.39
2018-11-10T20:09:08.342Z,66.20
2018-11-10T20:11:36.977Z,67.02
2018-11-10T20:14:05.694Z,67.15
2018-11-10T20:16:34.274Z,67.27
2018-11-10T20:19:02.763Z,67.28
2018-11-10T20:21:31.308Z,67.50
2018-11-10T20:23:59.952Z,67.19
2018-11-10T20:26:28.516Z,66.59
2018-11-10T20:28:57.074Z,67.70
2018-11-10T20:31:25.661Z,67.65
2018-11-10T20:33:54.227Z,67.86
2018-11-10T20:36:22.821Z,67.32
2018-11-10T20:38:51.474Z,67.46
2018-11-10T20:41:19.949Z,67.19
2018-11-10T20:43:48.491Z,67.14
2018-11-10T20:46:17.064Z,67.22
2018-11-10T20:48:45.663Z,67.26
2018-11-10T20:51:14.507Z,67.65
2018-11-10T20:53:43.364Z,67.16
2018-11-10T20:56:12.353Z,67.56
2018-11-10T20:58:40.961Z,67.57
2018-11-10T21:01:09.854Z,67.61
2018-11-10T21:03:38.666Z,67.26
2018-11-10T21:06:07.188Z,67.54
2018-11-10T21:08:36.333Z,67.95
2018-11-10T21:11:05.077Z,68.01
2018-11-10T21:13:33.777Z,67.45
2018-11-10T21:16:02.392Z,67.39
2018-11-10T21:18:31.045Z,68.21
2018-11-10T21:20:59.601Z,68.15
2018-11-10T21:23:28.281Z,67.58
2018-11-10T21:25:57.020Z,67.89
2018-11-10T21:28:25.623Z,67.42
2018-11-10T21:30:54.361Z,67.61
2018-11-10T21:33:23.012Z,67.61
2018-11-10T21:35:51.688Z,67.63
2018-11-10T21:38:20.235Z,67.64
2018-11-10T21:40:48.922Z,67.20
2018-11-10T21:43:17.691Z,67.46
2018-11-10T21:45:46.314Z,67.59
2018-11-10T21:48:14.941Z,67.35
2018-11-10T21:50:43.614Z,67.25
2018-11-10T21:53:12.192Z,67.11
2018-11-10T21:55:40.866Z,67.44
2018-11-10T21:58:09.508Z,66.86
2018-11-10T22:00:38.353Z,66.64
2018-11-10T22:03:07.046Z,66.47
2018-11-10T22:05:35.632Z,66.35
2018-11-10T22:08:04.238Z,66.35
2018-11-10T22:10:32.856Z,66.16
2018-11-10T22:13:01.429Z,66.76
2018-11-10T22:15:30.169Z,66.38
2018-11-10T22:17:58.862Z,65.92
2018-11-10T22:20:27.545Z,66.52
2018-11-10T22:22:56.219Z,65.82
2018-11-10T22:25:24.946Z,66.37
2018-11-10T22:27:54.376Z,66.04
2018-11-10T22:30:23.717Z,66.51
2018-11-10T22:32:52.656Z,66.60
2018-11-10T22:35:21.442Z,65.96
2018-11-10T22:37:50.080Z,66.76
2018-11-10T22:40:20.118Z,66.19
2018-11-10T22:42:48.757Z,66.45
2018-11-10T22:45:18.821Z,66.23
2018-11-10T22:47:47.499Z,66.57
2018-11-10T22:50:17.733Z,66.10
2018-11-10T22:52:46.492Z,66.52
2018-11-10T22:55:15.402Z,65.94
2018-11-10T22:57:44.213Z,65.50
2018-11-10T23:00:18.698Z,65.60
2018-11-10T23:02:49.224Z,65.54
2018-11-10T23:05:18.370Z,65.36
2018-11-10T23:07:47.045Z,66.06
2018-11-10T23:10:16.272Z,65.62
2018-11-10T23:12:45.709Z,65.04
2018-11-10T23:15:14.246Z,65.43
2018-11-10T23:17:42.807Z,65.18
2018-11-10T23:20:13.351Z,64.92
2018-11-10T23:22:42.158Z,64.34
2018-11-10T23:25:12.537Z,64.34
2018-11-10T23:27:41.076Z,64.67
2018-11-10T23:30:11.911Z,64.39
2018-11-10T23:32:41.022Z,64.31
2018-11-10T23:35:10.245Z,64.85
2018-11-10T23:37:38.823Z,64.27
2018-11-10T23:40:08.654Z,64.08
2018-11-10T23:42:37.180Z,64.46
2018-11-10T23:45:06.459Z,63.59
2018-11-10T23:47:35.075Z,63.43
2018-11-10T23:50:03.699Z,63.24
2018-11-10T23:52:32.313Z,62.87
2018-11-10T23:55:00.975Z,62.51
2018-11-10T23:57:29.617Z,62.11
2018-11-10T23:59:58.313Z,62.81
